Plymouth Light

42° 00' 12"N, 70° 36' 04"W, Elevation 54 ft.
Eastern Time

Hourly observations for the last 72 hours

Date Time Temperature (°F) Humi-
dity

(%)
Wind
(mph)
Pressure Rain (in) Sun
(W/m2)
ET
(in)
Air Dew 6 Hour 1 Hr 3 Hr 6 Hr Day
Alt
(in)
Sea
Level

(mb)
Max Min
20 02:00 64.9 62.5 72.3 62.5 92 WSW 3 G 8 29.65 1004.2 0.01 0.07 0.07 0 0.018
20 01:00 65.7 63.0 91 WNW 10 G 18 29.67 1004.7 0.07 0 0.017
20 00:00 63.8 62.0 94 SW 11 G 15 29.67 1004.9 0.01 0.07 0 0.016
19 23:00 66.1 62.8 89 WSW 7 G 14 29.73 1006.9 0.04 0.06 0.06 0 0.015
19 22:00 69.2 64.2 84 W 12 G 16 29.71 1006.2 0.02 0.02 0 0.013
19 21:00 71.1 64.6 80 W 7 G 12 29.68 1005.1 0.00 0 0.012
19 20:00 70.4 65.3 81.6 66.2 84 W 6 G 11 29.66 1004.5 0.00 7 0.011
19 19:00 69.8 67.1 91 WSW 7 G 9 29.64 1003.9 0.00 37 0.009
19 18:00 66.5 63.8 91 SSW 12 G 16 29.65 1004.1 0.00 25 0.007
19 17:00 70.8 65.7 84 SSW 12 G 16 29.63 1003.3 0.00 163 0.000
19 16:00 74.2 68.4 82 SSW 11 G 20 29.63 1003.4 0.00 352 0.194
19 15:00 73.6 67.1 80 SSW 12 G 16 29.64 1003.9 0.00 304 0.178
19 14:00 81.6 70.0 82.0 65.2 68 WSW 4 G 11 29.65 1004.1 0.00 886 0.158
19 13:00 76.1 69.1 79 WSW 4 G 15 29.65 1004.1 0.00 884 0.135
19 12:00 74.0 66.7 78 WSW 9 G 13 29.67 1004.6 0.00 921 0.113
19 11:00 71.4 65.6 82 WSW 10 G 15 29.68 1005.0 0.00 807 0.096
19 10:00 69.6 64.2 83 SW 7 G 13 29.69 1005.6 0.00 860 0.083
19 09:00 66.8 61.8 84 WSW 8 G 14 29.70 1005.8 0.00 420 0.071
19 08:00 65.2 60.6 65.4 62.3 85 SW 11 G 20 29.71 1006.3 0.00 427 0.063
19 07:00 63.8 59.2 85 SW 16 G 22 29.71 1006.3 0.00 163 0.059
19 06:00 63.4 58.2 83 SW 15 G 22 29.73 1006.7 0.00 74 0.056
19 05:00 63.8 57.9 81 SW 14 G 19 29.75 1007.3 0.00 5 0.054
19 04:00 63.2 58.6 85 SW 14 G 17 29.76 1007.9 0.00 0 0.052
19 03:00 62.6 58.0 85 SW 11 G 16 29.78 1008.6 0.00 0 0.050
19 02:00 65.4 58.7 68.0 65.3 79 SW 6 G 14 29.80 1009.0 0.00 0 0.048
19 01:00 66.0 58.6 77 WSW 7 G 19 29.78 1008.7 0.00 0 0.046
19 00:00 66.6 57.7 73 WSW 8 G 16 29.81 1009.3 0.00 0 0.044
18 23:00 66.7 56.2 69 WSW 9 G 18 29.82 1010.0 0.00 0 0.041
18 22:00 66.2 55.3 68 WSW 8 G 16 29.82 1009.9 0.00 0 0.039
18 21:00 66.8 55.1 66 WSW 4 G 14 29.83 1010.2 0.00 0 0.037
18 20:00 67.1 55.8 75.1 67.1 67 SW 10 G 17 29.83 1010.2 0.00 11 0.034
18 19:00 70.9 55.9 59 SW 11 G 18 29.84 1010.4 0.00 54 0.028
18 18:00 73.6 56.0 54 WSW 10 G 18 29.84 1010.6 0.00 334 0.016
18 17:00 71.7 57.5 61 SW 13 G 19 29.85 1011.0 0.00 506 0.000
18 16:00 74.6 56.4 53 WSW 7 G 15 29.86 1011.4 0.00 666 0.207
18 15:00 73.4 58.2 59 SSW 7 G 17 29.89 1012.2 0.00 765 0.185
18 14:00 74.8 54.9 78.0 63.4 50 S 10 G 14 29.89 1012.3 0.00 879 0.161
18 13:00 76.8 52.0 42 WSW 6 G 13 29.91 1012.9 0.00 877 0.136
18 12:00 74.5 53.5 48 WSW 6 G 12 29.93 1013.5 0.00 918 0.111
18 11:00 73.3 53.0 49 WNW 10 G 13 29.94 1013.9 0.00 858 0.086
18 10:00 68.9 56.2 64 SW 3 G 5 29.95 1014.3 0.00 752 0.068
18 09:00 65.3 56.8 74 W 2 G 6 29.97 1014.8 0.00 605 0.055
18 08:00 63.4 55.0 63.4 58.2 74 W 2 G 8 29.98 1015.2 0.00 394 0.047
18 07:00 59.6 54.8 84 W 3 G 4 29.98 1015.1 0.00 192 0.043
18 06:00 58.3 53.2 83 WNW 4 G 7 29.97 1014.9 0.00 76 0.041
18 05:00 58.9 53.4 82 WNW 0 G 4 29.96 1014.6 0.00 0 0.041
18 04:00 59.2 54.4 84 WNW 5 G 7 29.94 1014.0 0.00 0 0.041
18 03:00 58.6 54.4 86 WNW 1 G 5 29.94 1014.0 0.00 0 0.041
18 02:00 60.9 54.3 65.3 59.9 79 W 3 G 8 29.93 1013.6 0.00 0 0.040
18 01:00 60.0 55.5 85 WSW 2 G 6 29.94 1013.8 0.00 0 0.040
18 00:00 59.9 55.4 85 W 3 G 8 29.93 1013.7 0.00 0 0.040
17 23:00 61.2 55.7 82 SW 4 G 9 29.93 1013.5 0.00 0 0.039
17 22:00 62.1 55.9 80 SSW 10 G 14 29.93 1013.5 0.00 0 0.037
17 21:00 63.6 55.5 75 SW 10 G 14 29.90 1012.4 0.00 0 0.035
17 20:00 65.3 56.4 67.9 65.3 73 SSW 10 G 14 29.88 1011.8 0.00 14 0.032
17 19:00 66.6 56.1 69 SSW 10 G 15 29.87 1011.5 0.00 141 0.026
17 18:00 67.2 55.0 65 S 13 G 15 29.86 1011.2 0.00 318 0.015
17 17:00 67.7 54.2 62 SSW 14 G 18 29.86 1011.1 0.00 508 0.000
17 16:00 66.4 57.5 73 SSE 8 G 13 29.87 1011.5 0.00 670 0.184
17 15:00 66.4 57.5 73 SSE 6 G 13 29.88 1011.8 0.00 802 0.164
17 14:00 66.5 58.3 71.7 59.0 75 SE 6 G 11 29.88 1011.8 0.00 928 0.143
17 13:00 66.2 57.7 74 SE 9 G 12 29.88 1012.0 0.00 935 0.121
17 12:00 68.8 53.4 58 ESE 4 G 9 29.89 1012.3 0.00 933 0.098
17 11:00 71.4 49.0 45 NW 4 G 13 29.89 1012.3 0.00 867 0.076
17 10:00 67.9 54.0 61 WNW 4 G 7 29.89 1012.3 0.00 759 0.058
17 09:00 62.7 54.3 74 W 6 G 8 29.90 1012.7 0.00 617 0.045
17 08:00 59.0 52.5 59.0 54.9 79 W 7 G 10 29.89 1012.2 0.00 397 0.037
17 07:00 56.5 52.0 85 W 2 G 6 29.88 1011.8 0.00 192 0.033
17 06:00 55.2 51.4 87 WNW 4 G 9 29.86 1011.3 0.00 74 0.031
17 05:00 55.0 51.2 87 WNW 5 G 7 29.86 1011.1 0.00 0 0.030
17 04:00 56.9 51.1 81 NNW 4 G 6 29.85 1010.9 0.00 0 0.029
17 03:00 58.4 51.6 78 NW 5 G 11 29.85 1010.8 0.00 0 0.028

Data generated by WxSolution Version 1.9.1.1, Build 2017.11.27.